Latest Weather Observations for Ulladulla

IDN60801

Issued at 11:37 am EDT Tuesday 27 January 2015 (issued every 30 minutes, with the page automatically refreshed every 10 minutes)

About weather observations | Map of weather stations | Latest weather observations for NSW | Other Formats
Station Details ID: 069138 Name: ULLADULLA AWS Lat: -35.36 Lon: 150.48 Height: 35.7 m
Data from the previous 72 hours. | See also: Recent months at Ulladulla
Date/Time
EDT
Temp
°C
App
Temp
°C
Dew
Point
Rel
Hum
%
Delta-T
°C
Wind Press
QNH
hPa
Press
MSL
hPa
Rain
since 9 am
mm
Dir
 
Spd
km/h
Gust
km/h
Spd
kts
Gust
kts
27/11:30am 17.1 17.4 17.1 100 0.0 SW 11 17 6 9 1015.6 1015.5 1.6
27/11:00am 16.3 16.3 16.3 100 0.0 SW 11 15 6 8 1015.8 1015.7 1.6
27/10:30am 16.3 16.3 16.3 100 0.0 SW 11 15 6 8 1015.7 1015.6 1.4
27/10:00am 15.9 16.2 15.9 100 0.0 SW 9 13 5 7 1015.7 1015.6 1.2
27/09:30am 16.2 16.2 16.2 100 0.0 SSW 11 19 6 10 1015.6 1015.5 1.0
27/09:00am 15.7 15.9 15.7 100 0.0 SSW 9 15 5 8 1015.8 1015.7 11.8
27/08:30am 15.7 15.9 15.7 100 0.0 WSW 9 15 5 8 1015.7 1015.6 10.8
27/08:00am 15.6 15.4 15.6 100 0.0 SW 11 17 6 9 1015.4 1015.3 10.6
27/07:30am 15.6 15.4 15.6 100 0.0 SW 11 17 6 9 1015.0 1014.9 10.6
27/07:00am 15.7 15.9 15.7 100 0.0 SW 9 15 5 8 1014.8 1014.7 10.6
27/06:30am 15.8 15.6 15.8 100 0.0 SW 11 19 6 10 1014.6 1014.5 10.6
27/06:00am 15.6 15.4 15.6 100 0.0 SW 11 15 6 8 1014.6 1014.5 10.4
27/05:30am 15.6 15.7 15.6 100 0.0 SW 9 20 5 11 1014.6 1014.5 10.2
27/05:00am 15.6 15.7 15.6 100 0.0 SW 9 17 5 9 1014.6 1014.5 9.8
27/04:30am 15.6 15.0 15.6 100 0.0 SW 13 19 7 10 1014.6 1014.5 9.2
27/04:00am 15.6 15.7 15.4 99 0.1 SW 9 15 5 8 1014.8 1014.7 9.2
27/03:30am 15.7 15.8 15.5 99 0.1 SW 9 15 5 8 1014.9 1014.8 8.8
27/03:00am 16.0 16.6 15.7 98 0.2 SW 7 13 4 7 1015.1 1015.0 8.6
27/02:30am 16.1 16.3 15.8 98 0.2 WSW 9 15 5 8 1015.2 1015.1 8.0
27/02:00am 16.2 17.0 15.9 98 0.2 WSW 6 7 3 4 1015.4 1015.3 7.8
27/01:30am 16.1 16.7 15.8 98 0.2 WSW 7 15 4 8 1015.8 1015.7 7.4
27/01:00am 16.1 16.7 15.9 99 0.1 S 7 17 4 9 1016.0 1015.9 7.2
27/12:30am 16.0 17.2 15.8 99 0.1 WSW 4 9 2 5 1016.2 1016.1 6.4
27/12:00am 15.8 16.5 15.6 99 0.1 W 6 9 3 5 1016.4 1016.3 5.0
 
Date/Time
EDT
Temp
°C
App
Temp
°C
Dew
Point
Rel
Hum
%
Delta-T
°C
Wind Press
QNH
hPa
Press
MSL
hPa
Rain
since 9 am
mm
Dir
 
Spd
km/h
Gust
km/h
Spd
kts
Gust
kts
26/11:30pm 15.8 15.9 15.5 98 0.2 WSW 9 19 5 10 1016.6 1016.5 3.8
26/11:00pm 15.9 17.0 15.6 98 0.2 WSW 4 7 2 4 1016.6 1016.5 3.4
26/10:30pm 15.9 15.7 15.6 98 0.2 W 11 15 6 8 1016.9 1016.8 3.2
26/10:00pm 16.0 16.8 15.8 99 0.1 W 6 11 3 6 1016.8 1016.7 2.6
26/09:30pm 15.9 16.1 15.7 99 0.1 WSW 9 13 5 7 1016.6 1016.5 2.2
26/09:00pm 15.8 16.3 15.5 98 0.2 WSW 7 13 4 7 1016.5 1016.4 2.2
26/08:30pm 15.8 16.3 15.5 98 0.2 WSW 7 13 4 7 1016.4 1016.3 1.8
26/08:00pm 15.7 16.1 15.4 98 0.2 SW 7 13 4 7 1016.3 1016.2 1.6
26/07:30pm 15.6 15.2 15.1 97 0.3 WSW 11 15 6 8 1016.0 1015.9 0.4
26/07:00pm 15.5 15.0 14.9 96 0.3 WSW 11 17 6 9 1015.8 1015.7 0.4
26/06:30pm 15.8 15.6 14.8 94 0.6 WSW 9 13 5 7 1015.6 1015.5 0.4
26/06:00pm 16.3 15.3 14.5 89 1.0 SSW 13 20 7 11 1015.4 1015.3 0.2
26/05:30pm 16.8 16.1 14.4 86 1.4 SSW 11 17 6 9 1015.3 1015.2 0.2
26/05:00pm 16.6 15.6 14.6 88 1.1 S 13 20 7 11 1015.3 1015.2 0.2
26/04:30pm 16.4 15.3 14.2 87 1.3 S 13 17 7 9 1015.6 1015.5 0.2
26/04:00pm 16.9 15.1 13.4 80 2.0 S 15 22 8 12 1015.5 1015.4 0.0
26/03:30pm 17.5 15.6 13.0 75 2.5 SSE 15 22 8 12 1015.5 1015.4 0.0
26/03:00pm 18.0 15.7 13.1 73 2.8 S 17 28 9 15 1015.3 1015.2 0.0
26/02:30pm 18.0 15.5 12.2 69 3.2 S 17 32 9 17 1015.3 1015.2 0.0
26/02:00pm 18.3 15.2 12.3 68 3.3 S 20 28 11 15 1015.3 1015.2 0.0
26/01:30pm 18.3 15.1 11.8 66 3.6 S 20 30 11 16 1015.4 1015.3 0.0
26/01:00pm 18.4 14.2 11.2 63 3.9 S 24 30 13 16 1015.5 1015.4 0.0
26/12:30pm 18.4 15.0 11.2 63 3.9 S 20 32 11 17 1015.6 1015.5 0.0
26/12:00pm 18.4 15.0 11.2 63 3.9 S 20 28 11 15 1015.7 1015.6 0.0
26/11:30am 18.5 13.9 11.1 62 4.0 S 26 33 14 18 1015.4 1015.3 0.0
26/11:00am 18.5 14.4 11.6 64 3.8 S 24 33 13 18 1015.4 1015.3 0.0
26/10:30am 18.7 14.9 11.3 62 4.0 S 22 30 12 16 1015.3 1015.2 0.0
26/10:00am 19.0 14.3 10.8 59 4.4 S 26 30 14 16 1015.2 1015.1 0.0
26/09:30am 18.8 14.5 10.9 60 4.3 S 24 33 13 18 1015.1 1015.0 0.0
26/09:00am 18.4 13.6 10.3 59 4.3 S 26 33 14 18 1015.1 1015.0 0.0
26/08:30am 18.4 14.7 11.5 64 3.8 S 22 32 12 17 1014.8 1014.7 0.0
26/08:00am 18.2 14.8 11.3 64 3.8 S 20 33 11 18 1014.5 1014.4 0.0
26/07:30am 18.3 14.7 11.8 66 3.6 S 22 30 12 16 1014.2 1014.1 0.0
26/07:00am 18.2 15.0 12.0 67 3.4 S 20 28 11 15 1014.0 1013.9 0.0
26/06:30am 17.9 15.4 12.4 70 3.1 S 17 26 9 14 1013.7 1013.6 0.0
26/06:00am 18.0 15.2 13.1 73 2.8 S 20 28 11 15 1013.4 1013.3 0.0
26/05:30am 17.7 15.0 13.4 76 2.4 S 20 26 11 14 1013.0 1012.9 0.0
26/05:00am 17.2 15.1 13.5 79 2.1 S 17 26 9 14 1012.7 1012.6 0.0
26/04:30am 17.1 14.0 13.4 79 2.1 S 22 30 12 16 1012.4 1012.3 0.0
26/04:00am 18.5 15.3 13.1 71 3.0 S 22 35 12 19 1012.2 1012.1 0.0
26/03:30am 18.9 15.8 13.5 71 3.1 S 22 30 12 16 1012.0 1011.9 0.0
26/03:00am 18.9 14.9 14.0 73 2.8 S 28 37 15 20 1011.9 1011.8 0.0
26/02:30am 18.8 15.4 13.6 72 3.0 S 24 33 13 18 1011.8 1011.7 0.0
26/02:00am 18.8 14.8 14.1 74 2.7 S 28 39 15 21 1011.8 1011.7 0.0
26/01:30am 17.9 13.9 14.2 79 2.1 S 28 37 15 20 1011.9 1011.8 0.0
26/01:00am 19.3 16.7 13.9 71 3.1 S 20 33 11 18 1011.9 1011.8 0.0
26/12:30am 19.4 16.0 13.8 70 3.2 S 24 33 13 18 1011.7 1011.6 0.0
26/12:00am 19.3 16.0 13.9 71 3.1 S 24 35 13 19 1011.7 1011.6 0.0
 
Date/Time
EDT
Temp
°C
App
Temp
°C
Dew
Point
Rel
Hum
%
Delta-T
°C
Wind Press
QNH
hPa
Press
MSL
hPa
Rain
since 9 am
mm
Dir
 
Spd
km/h
Gust
km/h
Spd
kts
Gust
kts
25/11:30pm 19.5 16.3 15.2 76 2.5 S 26 35 14 19 1011.5 1011.4 0.0
25/11:00pm 19.1 15.3 14.6 75 2.6 S 28 35 15 19 1011.4 1011.3 0.0
25/10:30pm 19.3 16.3 14.8 75 2.6 S 24 35 13 19 1011.2 1011.1 0.0
25/10:00pm 19.0 15.4 15.3 79 2.2 S 28 35 15 19 1010.9 1010.8 0.0
25/09:30pm 19.7 17.0 15.6 77 2.4 S 24 32 13 17 1010.5 1010.4 0.0
25/09:00pm 19.4 15.4 15.1 76 2.5 S 30 37 16 20 1010.3 1010.2 0.0
25/08:30pm 19.3 15.8 15.4 78 2.3 S 28 37 15 20 1009.6 1009.5 0.0
25/08:00pm 19.8 16.0 15.7 77 2.4 S 30 41 16 22 1009.0 1008.9 0.0
25/07:30pm 20.2 15.8 15.6 75 2.7 S 33 41 18 22 1008.3 1008.2 0.0
25/07:00pm 20.2 15.9 15.8 76 2.6 S 33 43 18 23 1007.6 1007.5 0.0
25/06:30pm 20.4 16.2 16.2 77 2.5 S 33 43 18 23 1007.1 1007.0 0.0
25/06:00pm 20.7 17.4 16.9 79 2.3 S 30 39 16 21 1006.5 1006.4 0.0
25/05:30pm 21.4 17.9 17.8 80 2.2 S 33 41 18 22 1005.9 1005.7 0.0
25/05:00pm 21.6 18.9 17.6 78 2.5 S 28 37 15 20 1005.6 1005.4 0.0
25/04:30pm 21.9 18.3 17.7 77 2.6 S 33 43 18 23 1004.9 1004.7 0.0
25/04:00pm 22.4 18.0 18.4 78 2.5 S 39 46 21 25 1004.0 1003.8 0.0
25/03:30pm 22.8 18.0 19.6 82 2.0 S 44 57 24 31 1003.4 1003.2 0.0
25/03:00pm 25.9 23.2 19.3 67 4.3 SSW 32 44 17 24 1001.8 1001.6 0.0
25/02:54pm 27.9 26.4 18.6 57 6.0 WSW 24 44 13 24 1001.6 1001.4 0.0
25/02:30pm 33.1 32.4 17.3 39 10.1 WNW 17 30 9 16 1001.0 1000.8 0.0
25/02:00pm 32.9 33.0 18.3 42 9.5 WNW 15 26 8 14 1001.0 1000.8 0.0
25/01:30pm 32.4 32.6 18.6 44 9.0 WNW 15 26 8 14 1001.2 1001.0 0.0
25/01:00pm 31.7 32.5 19.0 47 8.3 WNW 13 28 7 15 1001.4 1001.2 0.0
25/12:30pm 30.8 31.3 19.2 50 7.6 WNW 15 24 8 13 1001.4 1001.2 0.0
25/12:00pm 30.6 31.4 19.0 50 7.6 W 13 26 7 14 1001.6 1001.4 0.0
25/11:30am 30.7 32.6 20.6 54 6.7 W 11 20 6 11 1001.6 1001.4 0.0
25/11:00am 30.5 32.2 20.1 53 6.9 W 11 20 6 11 1001.5 1001.3 0.0
25/10:30am 29.1 30.3 20.0 58 6.0 NW 13 22 7 12 1001.5 1001.3 0.0
25/10:00am 28.4 28.8 19.1 57 6.0 WNW 15 24 8 13 1001.7 1001.5 0.0
25/09:30am 27.6 27.2 18.9 59 5.6 WNW 19 32 10 17 1001.8 1001.6 0.0
25/09:00am 26.7 26.9 18.6 61 5.2 W 15 28 8 15 1001.8 1001.6 3.0
25/08:30am 25.8 26.7 19.2 67 4.2 W 13 24 7 13 1001.9 1001.7 3.0
25/08:00am 22.7 25.4 19.5 82 2.1 NE 4 6 2 3 1001.6 1001.4 3.0
25/07:30am 22.1 25.6 20.4 90 1.1 N 2 6 1 3 1001.5 1001.3 3.0
25/07:00am 20.8 23.3 19.8 94 0.6 NE 6 7 3 4 1001.2 1001.0 3.0
25/06:30am 20.0 22.5 19.0 94 0.6 WNW 4 7 2 4 1001.0 1000.8 3.0
25/06:00am 20.0 23.0 19.2 95 0.5 WNW 2 4 1 2 1000.6 1000.4 3.0
25/05:30am 19.7 22.6 19.0 96 0.4 NNE 2 11 1 6 1000.4 1000.2 3.0
25/05:00am 20.0 22.7 19.5 97 0.3 NNE 4 6 2 3 1000.5 1000.3 3.0
25/04:30am 20.0 22.2 19.5 97 0.3 N 7 9 4 5 1000.6 1000.4 3.0
25/04:00am 20.1 23.4 19.1 94 0.6 CALM 0 0 0 0 1000.8 1000.6 3.0
25/03:30am 20.4 23.3 19.1 92 0.8 WNW 2 6 1 3 1001.2 1001.0 3.0
25/03:00am 20.5 23.0 19.0 91 0.9 WNW 4 6 2 3 1001.8 1001.6 3.0
25/02:30am 21.1 23.2 19.4 90 1.1 NNW 7 9 4 5 1001.9 1001.7 3.0
25/02:00am 21.5 22.8 19.4 88 1.3 N 11 17 6 9 1002.1 1001.9 3.0
25/01:30am 21.4 22.9 20.6 95 0.5 N 13 19 7 10 1002.4 1002.2 3.0
25/01:00am 21.4 22.4 21.1 98 0.2 N 17 22 9 12 1002.8 1002.6 3.0
25/12:30am 21.5 23.2 21.0 97 0.3 N 13 17 7 9 1003.1 1002.9 3.0
25/12:00am 21.5 23.2 21.0 97 0.3 N 13 20 7 11 1003.7 1003.5 3.0
 
Date/Time
EDT
Temp
°C
App
Temp
°C
Dew
Point
Rel
Hum
%
Delta-T
°C
Wind Press
QNH
hPa
Press
MSL
hPa
Rain
since 9 am
mm
Dir
 
Spd
km/h
Gust
km/h
Spd
kts
Gust
kts
24/11:30pm 21.4 23.6 21.2 99 0.1 N 11 17 6 9 1003.9 1003.7 3.0
24/11:00pm 21.4 23.6 21.2 99 0.1 N 11 17 6 9 1004.5 1004.3 3.0
24/10:30pm 21.5 23.8 21.3 99 0.1 N 11 15 6 8 1005.2 1005.0 3.0
24/10:00pm 21.4 24.3 21.1 98 0.2 N 7 9 4 5 1005.1 1004.9 2.8
24/09:30pm 21.6 25.0 20.9 96 0.5 NW 4 6 2 3 1005.4 1005.2 2.8
24/09:00pm 21.5 24.8 20.8 96 0.5 W 4 7 2 4 1006.0 1005.8 2.6
24/08:30pm 21.4 24.1 20.6 95 0.5 SW 7 13 4 7 1006.1 1006.0 1.2
24/08:00pm 21.6 23.8 19.7 89 1.2 SW 7 13 4 7 1005.8 1005.6 0.6
24/07:30pm 22.1 24.4 19.5 85 1.7 SW 6 9 3 5 1005.3 1005.1 0.4
24/07:00pm 22.9 26.5 19.7 82 2.1 CALM 0 2 0 1 1004.9 1004.7 0.2
24/06:30pm 23.2 24.2 19.4 79 2.4 WSW 13 24 7 13 1004.9 1004.7 0.0
24/06:00pm 24.1 27.7 20.6 81 2.3 SE 2 6 1 3 1004.3 1004.1 0.0
24/05:30pm 23.9 26.8 20.6 82 2.2 S 6 7 3 4 1004.5 1004.3 0.0
24/05:00pm 23.4 25.6 20.3 83 2.0 NNW 9 17 5 9 1003.9 1003.7 0.0
24/04:30pm 23.3 25.8 20.2 83 2.0 N 7 17 4 9 1003.6 1003.4 0.0
24/04:00pm 23.5 25.6 20.2 82 2.1 N 9 17 5 9 1002.8 1002.6 0.0
24/03:30pm 23.9 23.0 19.8 78 2.6 NE 24 41 13 22 1003.0 1002.8 0.0
24/03:00pm 24.2 25.1 20.1 78 2.7 NE 15 26 8 14 1003.7 1003.5 0.0
24/02:30pm 24.7 23.4 20.6 78 2.7 NE 28 41 15 22 1003.7 1003.5 0.0
24/02:00pm 24.9 23.5 21.2 80 2.4 NE 30 37 16 20 1004.2 1004.0 0.0
24/01:30pm 24.8 25.6 21.7 83 2.1 NNE 20 28 11 15 1004.9 1004.7 0.0
24/01:00pm 24.4 26.2 21.9 86 1.7 NE 15 22 8 12 1005.6 1005.4 0.0
24/12:30pm 24.2 25.9 21.7 86 1.7 NE 15 22 8 12 1006.0 1005.8 0.0
24/12:00pm 23.9 25.8 21.4 86 1.7 NE 13 20 7 11 1006.4 1006.3 0.0

Other Formats:

Comma delimited format used in spreadsheet applications
http://www.bom.gov.au/fwo/IDN60801/IDN60801.94938.axf

JavaScript Object Notation format (JSON) in row-major order
http://www.bom.gov.au/fwo/IDN60801/IDN60801.94938.json